createdAt,value
2017-11-22T00:02:05.039Z,10.40
2017-11-22T00:04:34.740Z,10.40
2017-11-22T00:07:03.467Z,10.40
2017-11-22T00:09:32.048Z,10.40
2017-11-22T00:12:02.376Z,10.40
2017-11-22T00:14:30.999Z,10.40
2017-11-22T00:16:59.530Z,10.40
2017-11-22T00:19:27.973Z,10.40
2017-11-22T00:21:58.670Z,10.40
2017-11-22T00:24:27.912Z,10.40
2017-11-22T00:26:56.259Z,10.40
2017-11-22T00:29:25.817Z,10.50
2017-11-22T00:31:54.294Z,10.40
2017-11-22T00:34:23.959Z,10.50
2017-11-22T00:36:54.734Z,10.50
2017-11-22T00:39:23.305Z,10.50
2017-11-22T00:41:51.649Z,10.50
2017-11-22T00:44:20.980Z,10.50
2017-11-22T00:46:49.340Z,10.50
2017-11-22T00:49:17.692Z,10.40
2017-11-22T00:51:45.727Z,10.50
2017-11-22T00:54:14.122Z,10.50
2017-11-22T00:56:44.078Z,10.50
2017-11-22T00:59:13.625Z,10.50
2017-11-22T01:01:41.969Z,10.50
2017-11-22T01:04:10.303Z,10.50
2017-11-22T01:06:38.719Z,10.50
2017-11-22T01:09:07.982Z,10.50
2017-11-22T01:11:38.132Z,10.50
2017-11-22T01:14:06.623Z,10.50
2017-11-22T01:16:35.093Z,10.50
2017-11-22T01:19:04.091Z,10.60
2017-11-22T01:21:33.688Z,10.60
2017-11-22T01:24:02.024Z,10.60
2017-11-22T01:26:30.362Z,10.60
2017-11-22T01:28:58.864Z,10.60
2017-11-22T01:31:29.040Z,10.70
2017-11-22T01:33:57.478Z,10.70
2017-11-22T01:36:25.849Z,10.70
2017-11-22T01:38:54.436Z,10.80
2017-11-22T01:41:22.975Z,10.70
2017-11-22T01:43:52.905Z,10.80
2017-11-22T01:46:21.508Z,10.70
2017-11-22T01:48:51.350Z,10.70
2017-11-22T01:51:20.572Z,10.70
2017-11-22T01:53:49.267Z,10.70
2017-11-22T01:56:17.648Z,10.70
2017-11-22T01:58:46.172Z,10.80
2017-11-22T02:01:14.561Z,10.80
2017-11-22T02:03:44.299Z,10.80
2017-11-22T02:06:12.677Z,10.80
2017-11-22T02:08:41.204Z,10.80
2017-11-22T02:11:09.543Z,10.80
2017-11-22T02:13:38.082Z,10.80
2017-11-22T02:16:06.416Z,10.80
2017-11-22T02:18:34.971Z,10.80
2017-11-22T02:21:03.296Z,10.80
2017-11-22T02:23:31.651Z,10.80
2017-11-22T02:26:00.016Z,10.80
2017-11-22T02:28:28.372Z,10.80
2017-11-22T02:30:56.362Z,10.80
2017-11-22T02:33:24.378Z,10.90
2017-11-22T02:35:53.323Z,10.90
2017-11-22T02:38:21.678Z,10.90
2017-11-22T02:40:51.523Z,10.90
2017-11-22T02:43:20.230Z,10.90
2017-11-22T02:45:48.608Z,10.90
2017-11-22T02:48:17.403Z,10.90
2017-11-22T02:50:46.830Z,10.90
2017-11-22T02:53:15.167Z,10.90
2017-11-22T02:55:43.337Z,10.90
2017-11-22T02:58:11.702Z,10.90
2017-11-22T03:00:39.884Z,10.90
2017-11-22T03:03:08.216Z,10.90
2017-11-22T03:05:36.565Z,10.80
2017-11-22T03:08:04.707Z,10.70
2017-11-22T03:10:33.184Z,10.70
2017-11-22T03:13:01.507Z,10.70
2017-11-22T03:15:29.843Z,10.70
2017-11-22T03:17:58.375Z,10.80
2017-11-22T03:20:27.590Z,10.80
2017-11-22T03:22:55.970Z,10.80
2017-11-22T03:25:24.297Z,10.80
2017-11-22T03:27:52.662Z,10.80
2017-11-22T03:30:20.989Z,10.90
2017-11-22T03:32:51.908Z,10.90
2017-11-22T03:35:20.997Z,10.90
2017-11-22T03:37:50.755Z,10.90
2017-11-22T03:40:18.874Z,10.90
2017-11-22T03:42:47.693Z,10.90
2017-11-22T03:45:16.349Z,10.90
2017-11-22T03:47:51.876Z,10.90
2017-11-22T03:50:25.967Z,10.90
2017-11-22T03:52:59.699Z,11.00
2017-11-22T03:55:28.046Z,11.00
2017-11-22T03:57:59.332Z,11.00
2017-11-22T04:00:30.251Z,11.00
2017-11-22T04:03:04.100Z,10.90
2017-11-22T04:05:33.751Z,11.00
2017-11-22T04:08:02.085Z,10.90
2017-11-22T04:10:30.363Z,11.00
2017-11-22T04:12:58.690Z,11.00
2017-11-22T04:15:27.799Z,10.90
2017-11-22T04:17:56.155Z,10.90
2017-11-22T04:20:29.895Z,10.90
2017-11-22T04:22:58.379Z,11.00
2017-11-22T04:25:27.335Z,10.90
2017-11-22T04:27:56.426Z,10.90
2017-11-22T04:30:24.771Z,10.90
2017-11-22T04:32:53.322Z,10.90
2017-11-22T04:35:21.668Z,10.90
2017-11-22T04:37:50.142Z,10.90
2017-11-22T04:40:19.262Z,10.90
2017-11-22T04:42:47.790Z,10.80
2017-11-22T04:45:15.460Z,10.80
2017-11-22T04:47:43.507Z,10.80
2017-11-22T04:50:11.888Z,10.80
2017-11-22T04:52:40.243Z,10.80
2017-11-22T04:55:08.785Z,10.80
2017-11-22T04:57:37.114Z,10.90
2017-11-22T05:00:05.125Z,10.90
2017-11-22T05:02:33.135Z,10.90
2017-11-22T05:05:01.698Z,10.90
2017-11-22T05:07:30.039Z,10.90
2017-11-22T05:09:58.393Z,10.90
2017-11-22T05:12:26.825Z,11.00
2017-11-22T05:14:56.153Z,11.00
2017-11-22T05:17:24.608Z,11.00
2017-11-22T05:19:52.939Z,11.00
2017-11-22T05:22:21.269Z,10.90
2017-11-22T05:24:49.928Z,11.00
2017-11-22T05:27:18.348Z,11.00
2017-11-22T05:29:46.781Z,11.00
2017-11-22T05:32:15.104Z,10.90
2017-11-22T05:34:43.843Z,10.90
2017-11-22T05:37:12.346Z,11.00
2017-11-22T05:39:40.679Z,10.90
2017-11-22T05:42:09.030Z,11.00
2017-11-22T05:44:37.372Z,11.00
2017-11-22T05:47:05.574Z,11.00
2017-11-22T05:49:35.437Z,11.00
2017-11-22T05:52:03.842Z,11.00
2017-11-22T05:54:32.690Z,11.00
2017-11-22T05:57:00.712Z,11.00
2017-11-22T05:59:29.047Z,11.00
2017-11-22T06:01:57.383Z,10.90
2017-11-22T06:04:25.782Z,10.90
2017-11-22T06:06:54.118Z,10.90
2017-11-22T06:09:22.456Z,10.90
2017-11-22T06:11:50.813Z,11.00
2017-11-22T06:14:19.147Z,10.90
2017-11-22T06:16:47.688Z,11.00
2017-11-22T06:19:16.039Z,11.00
2017-11-22T06:21:44.377Z,10.90
2017-11-22T06:24:12.918Z,10.90
2017-11-22T06:26:41.253Z,10.90
2017-11-22T06:29:09.644Z,10.90
2017-11-22T06:31:38.047Z,11.00
2017-11-22T06:34:06.398Z,11.00
2017-11-22T06:36:34.770Z,11.00
2017-11-22T06:39:05.915Z,11.00
2017-11-22T06:41:34.260Z,11.00
2017-11-22T06:44:02.800Z,11.00
2017-11-22T06:46:31.141Z,11.00
2017-11-22T06:48:59.517Z,11.00
2017-11-22T06:51:27.844Z,11.00
2017-11-22T06:53:57.909Z,11.00
2017-11-22T06:56:26.434Z,11.00
2017-11-22T06:58:54.792Z,11.00
2017-11-22T07:01:23.322Z,11.00
2017-11-22T07:03:55.305Z,11.10
2017-11-22T07:06:23.631Z,11.00
2017-11-22T07:08:51.976Z,11.00
2017-11-22T07:11:20.329Z,11.10
2017-11-22T07:13:48.658Z,11.10
2017-11-22T07:16:22.516Z,11.10
2017-11-22T07:18:50.854Z,11.10
2017-11-22T07:21:19.946Z,11.10
2017-11-22T07:23:49.078Z,11.10
2017-11-22T07:26:17.400Z,11.10
2017-11-22T07:28:45.745Z,11.10
2017-11-22T07:31:14.196Z,11.10
2017-11-22T07:33:42.534Z,11.10
2017-11-22T07:36:17.399Z,11.10
2017-11-22T07:38:45.739Z,11.10
2017-11-22T07:41:14.830Z,11.20
2017-11-22T07:43:43.167Z,11.10
2017-11-22T07:46:11.520Z,11.10
2017-11-22T07:48:39.917Z,11.20
2017-11-22T07:51:13.217Z,11.20
2017-11-22T07:53:41.557Z,11.20
2017-11-22T07:56:09.886Z,11.20
2017-11-22T07:58:38.220Z,11.20
2017-11-22T08:01:06.562Z,11.20
2017-11-22T08:03:35.278Z,11.30
2017-11-22T08:06:03.812Z,11.30
2017-11-22T08:08:32.134Z,11.30
2017-11-22T08:11:00.677Z,11.30
2017-11-22T08:13:29.029Z,11.30
2017-11-22T08:16:01.981Z,11.30
2017-11-22T08:18:30.337Z,11.30
2017-11-22T08:20:58.672Z,11.30
2017-11-22T08:23:27.763Z,11.40
2017-11-22T08:25:56.103Z,11.40
2017-11-22T08:28:24.435Z,11.40
2017-11-22T08:30:52.781Z,11.40
2017-11-22T08:33:21.334Z,11.40
2017-11-22T08:35:49.787Z,11.50
2017-11-22T08:38:18.117Z,11.50
2017-11-22T08:40:46.639Z,11.50
2017-11-22T08:43:20.509Z,11.50
2017-11-22T08:45:49.127Z,11.50
2017-11-22T08:48:17.298Z,11.50
2017-11-22T08:50:45.622Z,11.50
2017-11-22T08:53:13.951Z,11.50
2017-11-22T08:55:47.908Z,11.60
2017-11-22T08:58:16.864Z,11.60
2017-11-22T09:00:45.326Z,11.60
2017-11-22T09:03:15.480Z,11.60
2017-11-22T09:05:48.751Z,11.70
2017-11-22T09:08:20.281Z,11.70
2017-11-22T09:10:48.655Z,11.80
2017-11-22T09:13:20.830Z,11.80
2017-11-22T09:15:49.609Z,11.80
2017-11-22T09:18:24.057Z,11.80
2017-11-22T09:20:52.411Z,11.80
2017-11-22T09:23:20.736Z,11.80
2017-11-22T09:25:49.253Z,11.80
2017-11-22T09:28:17.573Z,11.80
2017-11-22T09:30:51.446Z,11.90
2017-11-22T09:33:19.985Z,12.00
2017-11-22T09:35:49.079Z,12.10
2017-11-22T09:38:17.410Z,12.00
2017-11-22T09:40:45.764Z,12.00
2017-11-22T09:43:14.158Z,12.00
2017-11-22T09:45:42.521Z,12.00
2017-11-22T09:48:10.880Z,12.00
2017-11-22T09:50:39.216Z,11.90
2017-11-22T09:53:08.310Z,11.80
2017-11-22T09:55:36.657Z,11.80
2017-11-22T09:58:05.005Z,11.80
2017-11-22T10:00:33.345Z,11.70
2017-11-22T10:03:02.447Z,11.60
2017-11-22T10:05:30.784Z,11.60
2017-11-22T10:07:59.121Z,11.60
2017-11-22T10:10:27.460Z,11.60
2017-11-22T10:12:56.546Z,11.60
2017-11-22T10:15:25.085Z,11.60
2017-11-22T10:17:58.901Z,11.60
2017-11-22T10:20:27.060Z,11.70
2017-11-22T10:22:55.227Z,11.80
2017-11-22T10:25:23.655Z,11.80
2017-11-22T10:27:58.516Z,11.90
2017-11-22T10:30:30.218Z,12.00
2017-11-22T10:36:02.071Z,12.10
2017-11-22T10:38:30.525Z,12.20
2017-11-22T10:40:58.860Z,12.20
2017-11-22T10:43:27.955Z,12.40
2017-11-22T10:45:56.571Z,12.30
2017-11-22T10:48:24.928Z,12.40
2017-11-22T10:50:53.423Z,12.50
2017-11-22T10:53:23.030Z,12.60
2017-11-22T10:55:51.245Z,12.60
2017-11-22T10:58:19.579Z,12.60
2017-11-22T11:00:47.726Z,12.60
2017-11-22T11:03:16.160Z,12.60
2017-11-22T11:05:44.499Z,12.50
2017-11-22T11:08:12.872Z,12.50
2017-11-22T11:10:40.942Z,12.40
2017-11-22T11:13:09.319Z,12.40
2017-11-22T11:15:37.668Z,12.40
2017-11-22T11:18:09.276Z,12.60
2017-11-22T11:20:37.618Z,12.60
2017-11-22T11:23:05.970Z,12.60
2017-11-22T11:25:34.300Z,12.70
2017-11-22T11:28:02.642Z,12.80
2017-11-22T11:30:30.978Z,12.80
2017-11-22T11:32:59.508Z,12.80
2017-11-22T11:35:39.063Z,12.80
2017-11-22T11:38:07.282Z,12.80
2017-11-22T11:40:35.604Z,12.80
2017-11-22T11:43:03.969Z,12.80
2017-11-22T11:45:32.341Z,12.80
2017-11-22T11:48:00.831Z,12.80
2017-11-22T11:50:31.903Z,12.80
2017-11-22T11:53:01.030Z,12.90
2017-11-22T11:55:29.372Z,13.00
2017-11-22T11:57:57.911Z,13.10
2017-11-22T12:00:26.280Z,13.20
2017-11-22T12:02:55.349Z,13.10
2017-11-22T12:05:24.835Z,13.10
2017-11-22T12:07:53.166Z,13.10
2017-11-22T12:10:21.516Z,13.00
2017-11-22T12:12:50.253Z,13.00
2017-11-22T12:15:18.682Z,13.00
2017-11-22T12:17:47.272Z,13.00
2017-11-22T12:20:15.591Z,12.90
2017-11-22T12:22:43.938Z,13.00
2017-11-22T12:25:12.275Z,13.00
2017-11-22T12:27:40.814Z,12.90
2017-11-22T12:30:10.861Z,12.90
2017-11-22T12:32:39.979Z,12.90
2017-11-22T12:35:09.085Z,12.90
2017-11-22T12:37:37.409Z,12.90
2017-11-22T12:40:06.744Z,12.90
2017-11-22T12:42:35.897Z,12.90
2017-11-22T12:45:04.063Z,12.80
2017-11-22T12:47:32.416Z,12.80
2017-11-22T12:50:00.868Z,12.80
2017-11-22T12:52:28.867Z,12.70
2017-11-22T12:54:57.212Z,12.70
2017-11-22T12:57:25.683Z,12.70
2017-11-22T12:59:54.770Z,12.80
2017-11-22T13:02:23.970Z,12.70
2017-11-22T13:04:52.377Z,12.70
2017-11-22T13:07:21.652Z,12.70
2017-11-22T13:09:49.989Z,12.70
2017-11-22T13:12:18.789Z,12.80
2017-11-22T13:14:47.334Z,12.70
2017-11-22T13:17:15.667Z,12.80
2017-11-22T13:19:44.272Z,12.70
2017-11-22T13:22:15.841Z,12.70
2017-11-22T13:24:44.167Z,12.70
2017-11-22T13:27:17.681Z,12.70
2017-11-22T13:29:45.666Z,12.70
2017-11-22T13:32:21.268Z,12.70
2017-11-22T13:34:49.618Z,12.70
2017-11-22T13:37:18.058Z,12.70
2017-11-22T13:39:46.071Z,12.70
2017-11-22T13:42:14.509Z,12.60
2017-11-22T13:44:42.519Z,12.60
2017-11-22T13:47:10.823Z,12.70
2017-11-22T13:49:38.689Z,12.60
2017-11-22T13:52:06.516Z,12.60
2017-11-22T13:54:34.866Z,12.60
2017-11-22T13:57:03.199Z,12.70
2017-11-22T13:59:31.573Z,12.70
2017-11-22T14:02:00.248Z,12.70
2017-11-22T14:04:27.925Z,12.60
2017-11-22T14:06:56.075Z,12.70
2017-11-22T14:09:23.812Z,12.70
2017-11-22T14:11:52.278Z,12.70
2017-11-22T14:14:20.549Z,12.70
2017-11-22T14:16:48.223Z,12.70
2017-11-22T14:19:16.828Z,12.60
2017-11-22T14:21:45.236Z,12.60
2017-11-22T14:24:12.924Z,12.60
2017-11-22T14:26:41.389Z,12.60
2017-11-22T14:29:09.546Z,12.60
2017-11-22T14:31:38.887Z,12.60
2017-11-22T14:34:06.565Z,12.60
2017-11-22T14:36:36.139Z,12.60
2017-11-22T14:39:03.821Z,12.50
2017-11-22T14:41:32.011Z,12.60
2017-11-22T14:44:00.091Z,12.50
2017-11-22T14:46:27.764Z,12.40
2017-11-22T14:48:55.442Z,12.50
2017-11-22T14:51:23.805Z,12.50
2017-11-22T14:53:52.165Z,12.40
2017-11-22T14:56:20.039Z,12.40
2017-11-22T14:58:48.073Z,12.30
2017-11-22T15:01:15.735Z,12.30
2017-11-22T15:03:43.420Z,12.30
2017-11-22T15:06:11.094Z,12.30
2017-11-22T15:08:38.757Z,12.30
2017-11-22T15:11:06.444Z,12.20
2017-11-22T15:13:34.120Z,12.20
2017-11-22T15:16:02.133Z,12.20
2017-11-22T15:18:29.795Z,12.10
2017-11-22T15:20:57.471Z,12.10
2017-11-22T15:23:25.344Z,12.00
2017-11-22T15:25:53.685Z,12.00
2017-11-22T15:28:21.886Z,12.00
2017-11-22T15:30:49.571Z,12.00
2017-11-22T15:33:17.604Z,12.00
2017-11-22T15:35:45.276Z,11.90
2017-11-22T15:38:12.753Z,11.90
2017-11-22T15:40:41.087Z,11.80
2017-11-22T15:43:09.417Z,11.80
2017-11-22T15:45:37.744Z,11.80
2017-11-22T15:48:05.742Z,11.70
2017-11-22T15:50:34.289Z,11.70
2017-11-22T15:53:02.926Z,11.60
2017-11-22T15:55:31.257Z,11.50
2017-11-22T15:57:59.605Z,11.50
2017-11-22T16:00:27.992Z,11.50
2017-11-22T16:02:56.329Z,11.50
2017-11-22T16:05:24.808Z,11.40
2017-11-22T16:07:52.808Z,11.40
2017-11-22T16:10:21.176Z,11.40
2017-11-22T16:12:49.167Z,11.30
2017-11-22T16:15:18.322Z,11.20
2017-11-22T16:17:46.657Z,11.20
2017-11-22T16:20:15.751Z,11.20
2017-11-22T16:22:44.133Z,11.20
2017-11-22T16:25:12.477Z,11.20
2017-11-22T16:27:41.033Z,11.20
2017-11-22T16:30:08.799Z,11.10
2017-11-22T16:32:37.245Z,11.10
2017-11-22T16:35:05.250Z,11.10
2017-11-22T16:37:33.384Z,11.00
2017-11-22T16:40:02.067Z,11.00
2017-11-22T16:42:30.707Z,11.00
2017-11-22T16:44:59.418Z,11.00
2017-11-22T16:47:27.756Z,11.00
2017-11-22T16:49:55.877Z,11.00
2017-11-22T16:52:24.086Z,10.90
2017-11-22T16:54:52.641Z,10.90
2017-11-22T16:57:20.707Z,10.90
2017-11-22T16:59:49.218Z,10.90
2017-11-22T17:02:17.580Z,10.90
2017-11-22T17:04:46.235Z,10.90
2017-11-22T17:07:14.783Z,10.90
2017-11-22T17:09:43.319Z,10.80
2017-11-22T17:12:11.652Z,10.80
2017-11-22T17:14:40.124Z,10.80
2017-11-22T17:17:08.830Z,10.80
2017-11-22T17:19:37.301Z,10.70
2017-11-22T17:22:05.662Z,10.70
2017-11-22T17:24:33.672Z,10.70
2017-11-22T17:27:02.900Z,10.60
2017-11-22T17:29:31.244Z,10.60
2017-11-22T17:31:59.255Z,10.60
2017-11-22T17:34:28.362Z,10.60
2017-11-22T17:36:56.704Z,10.50
2017-11-22T17:39:25.052Z,10.60
2017-11-22T17:41:53.420Z,10.50
2017-11-22T17:44:21.172Z,10.50
2017-11-22T17:46:49.503Z,10.50
2017-11-22T17:49:17.923Z,10.50
2017-11-22T17:51:45.608Z,10.40
2017-11-22T17:54:14.063Z,10.40
2017-11-22T17:56:42.448Z,10.40
2017-11-22T17:59:11.123Z,10.30
2017-11-22T18:01:39.456Z,10.30
2017-11-22T18:04:07.813Z,10.20
2017-11-22T18:06:36.194Z,10.20
2017-11-22T18:09:04.149Z,10.20
2017-11-22T18:11:32.691Z,10.20
2017-11-22T18:14:01.032Z,10.20
2017-11-22T18:16:30.135Z,10.10
2017-11-22T18:18:58.490Z,10.10
2017-11-22T18:21:26.179Z,10.10
2017-11-22T18:23:53.878Z,10.00
2017-11-22T18:26:22.431Z,10.00
2017-11-22T18:28:50.768Z,10.00
2017-11-22T18:31:19.105Z,10.00
2017-11-22T18:33:47.768Z,10.00
2017-11-22T18:36:16.837Z,10.00
2017-11-22T18:38:46.235Z,10.00
2017-11-22T18:41:15.939Z,9.90
2017-11-22T18:43:44.932Z,9.90
2017-11-22T18:46:13.453Z,9.90
2017-11-22T18:48:41.782Z,9.90
2017-11-22T18:51:10.380Z,9.80
2017-11-22T18:53:40.142Z,9.90
2017-11-22T18:56:08.475Z,9.80
2017-11-22T18:58:36.852Z,9.80
2017-11-22T19:01:04.527Z,9.80
2017-11-22T19:03:32.866Z,9.80
2017-11-22T19:06:01.627Z,9.80
2017-11-22T19:08:29.963Z,9.80
2017-11-22T19:10:58.310Z,9.80
2017-11-22T19:13:26.646Z,9.80
2017-11-22T19:15:55.070Z,9.70
2017-11-22T19:18:23.451Z,9.70
2017-11-22T19:20:51.781Z,9.70
2017-11-22T19:23:20.171Z,9.70
2017-11-22T19:25:48.720Z,9.70
2017-11-22T19:28:17.164Z,9.70
2017-11-22T19:30:45.836Z,9.70
2017-11-22T19:33:14.138Z,9.70
2017-11-22T19:35:42.592Z,9.70
2017-11-22T19:38:10.973Z,9.70
2017-11-22T19:40:39.317Z,9.70
2017-11-22T19:43:08.642Z,9.70
2017-11-22T19:45:36.961Z,9.70
2017-11-22T19:48:05.303Z,9.80
2017-11-22T19:50:33.867Z,9.70
2017-11-22T19:53:02.252Z,9.80
2017-11-22T19:55:30.889Z,9.70
2017-11-22T19:57:59.221Z,9.70
2017-11-22T20:00:27.551Z,9.70
2017-11-22T20:02:56.879Z,9.70
2017-11-22T20:05:25.441Z,9.70
2017-11-22T20:08:04.812Z,9.70
2017-11-22T20:10:33.146Z,9.70
2017-11-22T20:13:01.746Z,9.70
2017-11-22T20:15:30.241Z,9.70
2017-11-22T20:17:58.586Z,9.70
2017-11-22T20:20:26.971Z,9.60
2017-11-22T20:22:55.348Z,9.70
2017-11-22T20:25:23.723Z,9.70
2017-11-22T20:27:52.054Z,9.70
2017-11-22T20:30:20.411Z,9.60
2017-11-22T20:32:48.769Z,9.60
2017-11-22T20:35:17.105Z,9.60
2017-11-22T20:37:45.647Z,9.60
2017-11-22T20:40:13.999Z,9.60
2017-11-22T20:42:42.359Z,9.60
2017-11-22T20:45:10.733Z,9.60
2017-11-22T20:47:39.109Z,9.60
2017-11-22T20:50:07.621Z,9.60
2017-11-22T20:52:37.688Z,9.50
2017-11-22T20:55:06.009Z,9.60
2017-11-22T20:57:34.353Z,9.60
2017-11-22T21:00:02.752Z,9.50
2017-11-22T21:02:31.302Z,9.50
2017-11-22T21:04:59.636Z,9.50
2017-11-22T21:07:28.731Z,9.50
2017-11-22T21:09:57.103Z,9.50
2017-11-22T21:12:25.586Z,9.50
2017-11-22T21:14:53.939Z,9.50
2017-11-22T21:17:22.591Z,9.40
2017-11-22T21:19:50.936Z,9.40
2017-11-22T21:22:20.037Z,9.40
2017-11-22T21:24:48.578Z,9.40
2017-11-22T21:27:16.889Z,9.50
2017-11-22T21:29:45.241Z,9.40
2017-11-22T21:32:13.576Z,9.40
2017-11-22T21:34:41.980Z,9.40
2017-11-22T21:37:10.322Z,9.40
2017-11-22T21:39:38.649Z,9.30
2017-11-22T21:42:08.429Z,9.30
2017-11-22T21:44:36.971Z,9.30
2017-11-22T21:47:05.330Z,9.30
2017-11-22T21:49:33.643Z,9.40
2017-11-22T21:52:01.973Z,9.40
2017-11-22T21:54:30.502Z,9.40
2017-11-22T21:56:58.854Z,9.40
2017-11-22T21:59:27.215Z,9.40
2017-11-22T22:01:55.545Z,9.40
2017-11-22T22:04:23.886Z,9.40
2017-11-22T22:06:52.213Z,9.40
2017-11-22T22:09:21.372Z,9.40
2017-11-22T22:11:49.717Z,9.40
2017-11-22T22:14:18.081Z,9.30
2017-11-22T22:16:46.445Z,9.40
2017-11-22T22:19:15.054Z,9.40
2017-11-22T22:21:43.594Z,9.40
2017-11-22T22:24:11.929Z,9.40
2017-11-22T22:26:40.264Z,9.50
2017-11-22T22:29:09.378Z,9.40
2017-11-22T22:31:37.695Z,9.40
2017-11-22T22:34:06.947Z,9.40
2017-11-22T22:36:35.856Z,9.40
2017-11-22T22:39:03.585Z,9.40
2017-11-22T22:41:32.152Z,9.40
2017-11-22T22:44:00.524Z,9.30
2017-11-22T22:46:28.852Z,9.40
2017-11-22T22:48:57.179Z,9.40
2017-11-22T22:51:25.540Z,9.30
2017-11-22T22:53:55.488Z,9.40
2017-11-22T22:56:23.829Z,9.40
2017-11-22T22:58:52.153Z,9.30
2017-11-22T23:01:20.472Z,9.30
2017-11-22T23:03:48.816Z,9.30
2017-11-22T23:06:17.370Z,9.20
2017-11-22T23:08:45.775Z,9.20
2017-11-22T23:11:15.227Z,9.30
2017-11-22T23:13:43.569Z,9.30
2017-11-22T23:16:11.944Z,9.30
2017-11-22T23:18:41.194Z,9.30
2017-11-22T23:21:10.043Z,9.40
2017-11-22T23:23:39.791Z,9.40
2017-11-22T23:26:08.136Z,9.40
2017-11-22T23:28:36.472Z,9.40
2017-11-22T23:31:05.018Z,9.40
2017-11-22T23:33:33.350Z,9.40
2017-11-22T23:36:01.711Z,9.40
2017-11-22T23:38:29.867Z,9.30
2017-11-22T23:40:58.377Z,9.40
2017-11-22T23:43:26.738Z,9.40
2017-11-22T23:45:55.078Z,9.30
2017-11-22T23:48:23.556Z,9.40
2017-11-22T23:50:52.027Z,9.40
2017-11-22T23:53:20.382Z,9.40
2017-11-22T23:55:49.397Z,9.40
2017-11-22T23:58:18.028Z,9.40
